createdAt,value
2022-07-30T00:00:50.434Z,50.38
2022-07-30T00:03:20.627Z,50.38
2022-07-30T00:05:50.666Z,50.77
2022-07-30T00:08:20.664Z,50.38
2022-07-30T00:10:51.626Z,50.26
2022-07-30T00:13:21.797Z,50.37
2022-07-30T00:15:53.491Z,50.69
2022-07-30T00:18:23.394Z,50.77
2022-07-30T00:20:53.482Z,50.70
2022-07-30T00:23:26.669Z,50.58
2022-07-30T00:25:56.875Z,51.02
2022-07-30T00:28:26.695Z,51.04
2022-07-30T00:30:58.163Z,51.42
2022-07-30T00:33:28.146Z,51.36
2022-07-30T00:35:58.286Z,51.93
2022-07-30T00:38:28.230Z,51.94
2022-07-30T00:40:59.335Z,51.70
2022-07-30T00:43:30.356Z,51.73
2022-07-30T00:46:01.600Z,51.94
2022-07-30T00:48:31.668Z,51.99
2022-07-30T00:51:01.742Z,52.13
2022-07-30T00:53:33.378Z,51.98
2022-07-30T00:56:04.831Z,52.37
2022-07-30T00:58:35.020Z,52.30
2022-07-30T01:01:06.458Z,52.82
2022-07-30T01:03:38.423Z,52.63
2022-07-30T01:06:14.149Z,52.60
2022-07-30T01:08:44.525Z,52.84
2022-07-30T01:11:14.570Z,53.58
2022-07-30T01:13:46.244Z,53.11
2022-07-30T01:16:18.461Z,52.67
2022-07-30T01:19:06.796Z,52.31
2022-07-30T01:21:41.390Z,52.69
2022-07-30T01:24:23.525Z,53.13
2022-07-30T01:26:56.554Z,52.85
2022-07-30T01:29:28.722Z,52.51
2022-07-30T01:32:01.222Z,53.15
2022-07-30T01:34:35.197Z,53.03
2022-07-30T01:37:08.544Z,53.21
2022-07-30T01:39:40.108Z,53.61
2022-07-30T01:42:14.693Z,53.48
2022-07-30T01:44:47.971Z,54.30
2022-07-30T01:47:19.954Z,54.83
2022-07-30T01:49:52.208Z,54.17
2022-07-30T01:52:23.776Z,54.31
2022-07-30T01:54:57.564Z,54.37
2022-07-30T01:57:28.846Z,54.36
2022-07-30T02:00:03.336Z,54.88
2022-07-30T02:02:33.345Z,54.86
2022-07-30T02:05:04.002Z,54.85
2022-07-30T02:07:40.604Z,55.08
2022-07-30T02:10:15.523Z,55.29
2022-07-30T02:12:52.416Z,55.54
2022-07-30T02:15:30.359Z,55.42
2022-07-30T02:18:04.091Z,56.35
2022-07-30T02:20:38.404Z,55.97
2022-07-30T02:23:12.435Z,56.35
2022-07-30T02:25:48.302Z,56.94
2022-07-30T02:28:22.604Z,56.40
2022-07-30T02:31:01.124Z,56.34
2022-07-30T02:33:41.173Z,56.09
2022-07-30T02:36:21.055Z,56.51
2022-07-30T02:38:52.552Z,56.31
2022-07-30T02:41:25.001Z,56.38
2022-07-30T02:43:58.227Z,56.80
2022-07-30T02:46:29.336Z,56.59
2022-07-30T02:49:00.397Z,56.96
2022-07-30T02:51:32.154Z,57.25
2022-07-30T02:54:04.504Z,57.56
2022-07-30T02:56:36.644Z,58.00
2022-07-30T02:59:09.871Z,56.96
2022-07-30T03:01:40.063Z,57.02
2022-07-30T03:04:11.286Z,56.76
2022-07-30T03:06:43.152Z,57.18
2022-07-30T03:09:16.766Z,58.22
2022-07-30T03:11:48.600Z,58.21
2022-07-30T03:14:20.833Z,59.03
2022-07-30T03:16:57.496Z,59.42
2022-07-30T03:19:32.391Z,59.75
2022-07-30T03:22:04.469Z,59.98
2022-07-30T03:24:36.269Z,60.19
2022-07-30T03:27:08.140Z,59.71
2022-07-30T03:29:41.051Z,59.65
2022-07-30T03:32:13.708Z,59.43
2022-07-30T03:34:45.529Z,59.47
2022-07-30T03:37:17.278Z,59.15
2022-07-30T03:39:48.138Z,59.01
2022-07-30T03:42:18.424Z,58.95
2022-07-30T03:44:50.580Z,59.84
2022-07-30T03:47:23.818Z,59.79
2022-07-30T03:49:53.879Z,59.44
2022-07-30T03:52:23.843Z,59.34
2022-07-30T03:54:54.373Z,59.28
2022-07-30T03:57:24.501Z,58.77
2022-07-30T03:59:56.025Z,59.72
2022-07-30T04:02:26.024Z,60.38
2022-07-30T04:04:56.417Z,60.76
2022-07-30T04:07:26.635Z,60.85
2022-07-30T04:09:56.558Z,61.10
2022-07-30T04:12:27.144Z,61.29
2022-07-30T04:14:59.191Z,61.42
2022-07-30T04:17:36.480Z,61.56
2022-07-30T04:20:14.214Z,60.84
2022-07-30T04:22:46.909Z,61.81
2022-07-30T04:25:24.069Z,62.22
2022-07-30T04:28:03.145Z,62.14
2022-07-30T04:30:35.418Z,62.17
2022-07-30T04:33:06.343Z,62.29
2022-07-30T04:35:51.139Z,62.48
2022-07-30T04:38:22.331Z,62.53
2022-07-30T04:40:52.536Z,62.09
2022-07-30T04:43:22.618Z,62.50
2022-07-30T04:45:54.443Z,62.50
2022-07-30T04:48:26.745Z,62.89
2022-07-30T04:51:00.614Z,62.68
2022-07-30T04:53:30.616Z,62.75
2022-07-30T04:56:02.598Z,63.05
2022-07-30T04:58:34.904Z,62.83
2022-07-30T05:01:07.053Z,62.84
2022-07-30T05:03:47.964Z,62.67
2022-07-30T05:06:18.744Z,62.31
2022-07-30T05:08:49.484Z,62.55
2022-07-30T05:11:19.485Z,61.88
2022-07-30T05:13:50.498Z,61.59
2022-07-30T05:16:22.662Z,61.82
2022-07-30T05:18:52.823Z,62.03
2022-07-30T05:21:23.068Z,61.52
2022-07-30T05:23:53.130Z,60.89
2022-07-30T05:26:27.666Z,61.05
2022-07-30T05:28:58.105Z,60.97
2022-07-30T05:31:29.502Z,62.26
2022-07-30T05:34:03.669Z,63.13
2022-07-30T05:36:34.428Z,63.35
2022-07-30T05:39:05.657Z,64.38
2022-07-30T05:41:35.750Z,63.31
2022-07-30T05:44:06.228Z,63.11
2022-07-30T05:46:38.034Z,63.25
2022-07-30T05:49:08.356Z,63.44
2022-07-30T05:51:38.462Z,62.81
2022-07-30T05:54:08.429Z,62.53
2022-07-30T05:56:38.496Z,62.87
2022-07-30T05:59:08.447Z,63.95
2022-07-30T06:01:39.892Z,64.00
2022-07-30T06:04:09.840Z,63.10
2022-07-30T06:06:39.755Z,62.21
2022-07-30T06:09:10.282Z,61.54
2022-07-30T06:11:40.434Z,62.15
2022-07-30T06:14:10.880Z,62.22
2022-07-30T06:16:45.452Z,61.66
2022-07-30T06:19:19.675Z,61.05
2022-07-30T06:22:05.480Z,61.18
2022-07-30T06:24:37.382Z,60.52
2022-07-30T06:27:08.124Z,59.64
2022-07-30T06:29:38.143Z,58.75
2022-07-30T06:32:09.652Z,58.60
2022-07-30T06:34:39.585Z,58.28
2022-07-30T06:37:10.748Z,56.56
2022-07-30T06:39:57.685Z,56.58
2022-07-30T06:42:29.038Z,56.17
2022-07-30T06:44:59.016Z,56.10
2022-07-30T06:47:31.358Z,55.67
2022-07-30T06:50:03.110Z,55.21
2022-07-30T06:52:34.087Z,55.18
2022-07-30T06:55:04.887Z,54.79
2022-07-30T06:57:40.112Z,54.32
2022-07-30T07:00:13.365Z,53.70
2022-07-30T07:02:44.770Z,53.05
2022-07-30T07:05:14.860Z,52.53
2022-07-30T07:07:57.837Z,52.32
2022-07-30T07:10:29.399Z,51.78
2022-07-30T07:13:01.772Z,51.02
2022-07-30T07:15:36.607Z,51.35
2022-07-30T07:18:09.605Z,50.68
2022-07-30T07:20:39.960Z,50.03
2022-07-30T07:23:11.998Z,49.72
2022-07-30T07:25:42.642Z,50.45
2022-07-30T07:28:13.665Z,49.29
2022-07-30T07:30:44.521Z,49.29
2022-07-30T07:33:16.464Z,49.01
2022-07-30T07:35:50.292Z,50.17
2022-07-30T07:38:20.686Z,48.96
2022-07-30T07:40:50.756Z,48.39
2022-07-30T07:43:20.737Z,45.96
2022-07-30T07:45:50.659Z,46.35
2022-07-30T07:48:22.490Z,46.99
2022-07-30T07:50:55.014Z,46.36
2022-07-30T07:53:28.321Z,46.94
2022-07-30T07:55:59.769Z,46.96
2022-07-30T07:58:31.032Z,44.98
2022-07-30T08:01:01.932Z,45.05
2022-07-30T08:03:33.643Z,44.67
2022-07-30T08:06:05.724Z,44.85
2022-07-30T08:08:37.649Z,43.87
2022-07-30T08:11:08.237Z,43.36
2022-07-30T08:13:52.165Z,42.92
2022-07-30T08:16:23.767Z,40.82
2022-07-30T08:18:55.098Z,41.40
2022-07-30T08:21:25.569Z,40.90
2022-07-30T08:23:55.493Z,41.98
2022-07-30T08:26:25.946Z,40.61
2022-07-30T08:28:55.746Z,40.13
2022-07-30T08:31:25.689Z,40.37
2022-07-30T08:33:57.364Z,40.53
2022-07-30T08:36:27.361Z,41.08
2022-07-30T08:38:57.432Z,40.17
2022-07-30T08:41:28.228Z,40.92
2022-07-30T08:44:01.363Z,39.45
2022-07-30T08:46:33.217Z,40.25
2022-07-30T08:49:07.562Z,39.30
2022-07-30T08:51:41.103Z,39.08
2022-07-30T08:54:11.078Z,38.71
2022-07-30T08:56:41.054Z,39.51
2022-07-30T08:59:12.904Z,38.21
2022-07-30T09:01:42.864Z,38.29
2022-07-30T09:04:14.431Z,38.88
2022-07-30T09:06:44.370Z,38.06
2022-07-30T09:09:14.224Z,38.75
2022-07-30T09:11:44.769Z,38.57
2022-07-30T09:14:16.325Z,39.12
2022-07-30T09:16:46.632Z,37.99
2022-07-30T09:19:19.915Z,38.19
2022-07-30T09:21:58.228Z,37.55
2022-07-30T09:24:29.164Z,37.82
2022-07-30T09:27:00.885Z,37.63
2022-07-30T09:29:32.456Z,36.55
2022-07-30T09:32:04.255Z,36.54
2022-07-30T09:34:37.729Z,36.55
2022-07-30T09:37:20.450Z,37.25
2022-07-30T09:39:59.469Z,37.10
2022-07-30T09:42:32.076Z,36.89
2022-07-30T09:45:08.232Z,37.83
2022-07-30T09:47:39.699Z,37.40
2022-07-30T09:50:18.011Z,36.36
2022-07-30T09:53:11.786Z,36.67
2022-07-30T09:55:42.602Z,35.80
2022-07-30T09:58:20.028Z,36.46
2022-07-30T10:00:59.422Z,36.81
2022-07-30T10:03:33.870Z,37.29
2022-07-30T10:06:14.027Z,36.35
2022-07-30T10:08:48.255Z,36.17
2022-07-30T10:11:22.779Z,36.18
2022-07-30T10:13:56.745Z,36.30
2022-07-30T10:16:31.086Z,35.14
2022-07-30T10:19:01.663Z,35.80
2022-07-30T10:21:36.147Z,35.36
2022-07-30T10:24:08.213Z,35.81
2022-07-30T10:26:38.427Z,37.23
2022-07-30T10:29:08.576Z,35.86
2022-07-30T10:31:48.862Z,35.28
2022-07-30T10:34:23.589Z,35.49
2022-07-30T10:37:04.830Z,34.74
2022-07-30T10:39:40.106Z,34.82
2022-07-30T10:42:23.081Z,35.19
2022-07-30T10:45:18.087Z,34.42
2022-07-30T10:47:50.018Z,35.26
2022-07-30T10:50:22.682Z,34.69
2022-07-30T10:52:56.260Z,34.09
2022-07-30T10:55:32.865Z,33.95
2022-07-30T10:58:12.414Z,33.70
2022-07-30T11:01:00.974Z,34.48
2022-07-30T11:03:41.702Z,33.55
2022-07-30T11:06:29.345Z,34.21
2022-07-30T11:09:00.710Z,33.83
2022-07-30T11:12:01.401Z,34.45
2022-07-30T11:15:07.286Z,35.13
2022-07-30T11:18:12.339Z,34.58
2022-07-30T11:20:48.849Z,34.54
2022-07-30T11:23:40.698Z,33.68
2022-07-30T11:26:14.094Z,34.57
2022-07-30T11:28:49.626Z,34.28
2022-07-30T11:31:55.042Z,33.41
2022-07-30T11:34:29.814Z,31.73
2022-07-30T11:37:19.094Z,32.53
2022-07-30T11:40:11.618Z,32.94
2022-07-30T11:42:43.811Z,33.92
2022-07-30T11:45:27.107Z,33.48
2022-07-30T11:48:00.302Z,33.81
2022-07-30T11:50:33.027Z,34.52
2022-07-30T11:53:07.509Z,34.28
2022-07-30T11:55:40.046Z,33.31
2022-07-30T11:58:13.071Z,33.22
2022-07-30T12:00:47.972Z,33.67
2022-07-30T12:03:19.389Z,34.03
2022-07-30T12:05:51.148Z,33.67
2022-07-30T12:08:33.466Z,33.93
2022-07-30T12:11:06.094Z,33.60
2022-07-30T12:13:44.066Z,33.40
2022-07-30T12:16:18.158Z,32.82
2022-07-30T12:18:48.739Z,33.83
2022-07-30T12:21:19.089Z,34.21
2022-07-30T12:23:56.775Z,34.02
2022-07-30T12:26:29.399Z,34.48
2022-07-30T12:29:05.044Z,34.82
2022-07-30T12:31:38.551Z,34.01
2022-07-30T12:34:23.285Z,33.62
2022-07-30T12:36:53.940Z,34.31
2022-07-30T12:39:26.405Z,34.64
2022-07-30T12:41:58.657Z,34.99
2022-07-30T12:44:41.080Z,34.70
2022-07-30T12:47:24.153Z,35.05
2022-07-30T12:49:55.837Z,34.87
2022-07-30T12:52:30.850Z,34.99
2022-07-30T12:55:04.416Z,34.67
2022-07-30T12:57:57.001Z,35.87
2022-07-30T13:00:30.714Z,34.40
2022-07-30T13:03:01.111Z,35.00
2022-07-30T13:05:45.064Z,35.40
2022-07-30T13:08:15.700Z,34.42
2022-07-30T13:10:59.836Z,34.96
2022-07-30T13:13:32.882Z,34.71
2022-07-30T13:16:08.203Z,33.69
2022-07-30T13:18:38.753Z,34.94
2022-07-30T13:21:09.555Z,34.53
2022-07-30T13:23:41.228Z,34.08
2022-07-30T13:26:12.427Z,34.05
2022-07-30T13:28:42.526Z,33.67
2022-07-30T13:31:14.386Z,34.41
2022-07-30T13:33:45.236Z,34.67
2022-07-30T13:36:15.768Z,35.46
2022-07-30T13:38:45.963Z,34.98
2022-07-30T13:41:22.601Z,34.51
2022-07-30T13:43:52.682Z,34.87
2022-07-30T13:46:24.133Z,35.56
2022-07-30T13:48:54.341Z,33.42
2022-07-30T13:51:24.526Z,32.21
2022-07-30T13:53:55.236Z,33.58
2022-07-30T13:56:25.628Z,31.95
2022-07-30T13:58:56.487Z,33.70
2022-07-30T14:01:28.479Z,34.43
2022-07-30T14:03:58.915Z,33.66
2022-07-30T14:06:29.202Z,34.78
2022-07-30T14:08:59.551Z,34.29
2022-07-30T14:11:29.647Z,33.41
2022-07-30T14:14:01.062Z,33.28
2022-07-30T14:16:49.616Z,34.27
2022-07-30T14:19:24.682Z,32.71
2022-07-30T14:21:55.006Z,33.24
2022-07-30T14:24:25.293Z,33.45
2022-07-30T14:26:58.173Z,32.69
2022-07-30T14:29:29.819Z,31.98
2022-07-30T14:32:01.403Z,31.86
2022-07-30T14:34:31.478Z,31.72
2022-07-30T14:37:02.396Z,31.25
2022-07-30T14:39:34.998Z,31.42
2022-07-30T14:42:06.473Z,31.65
2022-07-30T14:44:36.823Z,33.62
2022-07-30T14:47:09.123Z,33.55
2022-07-30T14:49:39.239Z,34.58
2022-07-30T14:52:09.427Z,33.87
2022-07-30T14:54:40.101Z,34.31
2022-07-30T14:57:11.463Z,33.31
2022-07-30T14:59:41.631Z,33.40
2022-07-30T15:02:13.032Z,33.69
2022-07-30T15:04:43.314Z,33.59
2022-07-30T15:07:13.519Z,32.62
2022-07-30T15:09:43.644Z,33.29
2022-07-30T15:12:23.834Z,33.48
2022-07-30T15:14:57.782Z,33.72
2022-07-30T15:17:29.368Z,32.92
2022-07-30T15:20:00.535Z,33.18
2022-07-30T15:22:31.522Z,32.66
2022-07-30T15:25:02.095Z,32.96
2022-07-30T15:27:34.267Z,34.46
2022-07-30T15:30:06.259Z,34.70
2022-07-30T15:32:39.029Z,33.83
2022-07-30T15:35:13.591Z,33.87
2022-07-30T15:37:44.218Z,34.76
2022-07-30T15:40:14.543Z,35.26
2022-07-30T15:42:44.883Z,34.48
2022-07-30T15:45:17.680Z,34.00
2022-07-30T15:47:49.774Z,33.60
2022-07-30T15:50:19.914Z,33.17
2022-07-30T15:52:51.630Z,32.71
2022-07-30T15:55:22.311Z,33.35
2022-07-30T15:57:52.546Z,32.67
2022-07-30T16:00:25.608Z,33.38
2022-07-30T16:03:01.464Z,33.09
2022-07-30T16:05:52.533Z,32.18
2022-07-30T16:08:22.696Z,32.62
2022-07-30T16:10:53.199Z,33.08
2022-07-30T16:13:23.629Z,33.06
2022-07-30T16:15:54.305Z,32.82
2022-07-30T16:18:26.123Z,33.01
2022-07-30T16:20:58.957Z,33.20
2022-07-30T16:23:36.500Z,32.86
2022-07-30T16:26:09.407Z,33.76
2022-07-30T16:28:40.663Z,33.82
2022-07-30T16:31:10.701Z,34.38
2022-07-30T16:33:42.365Z,34.99
2022-07-30T16:36:12.804Z,35.39
2022-07-30T16:38:42.953Z,35.72
2022-07-30T16:41:13.735Z,35.39
2022-07-30T16:43:43.910Z,36.73
2022-07-30T16:46:14.308Z,35.77
2022-07-30T16:48:50.354Z,36.30
2022-07-30T16:51:20.819Z,37.43
2022-07-30T16:53:50.943Z,37.61
2022-07-30T16:56:21.508Z,37.14
2022-07-30T16:58:51.694Z,37.40
2022-07-30T17:01:21.808Z,39.14
2022-07-30T17:03:53.386Z,38.10
2022-07-30T17:06:23.653Z,37.34
2022-07-30T17:08:53.909Z,38.22
2022-07-30T17:11:47.441Z,37.91
2022-07-30T17:14:15.713Z,37.51
2022-07-30T17:16:46.219Z,37.84
2022-07-30T17:19:18.196Z,38.12
2022-07-30T17:21:50.554Z,38.58
2022-07-30T17:24:21.261Z,38.43
2022-07-30T17:26:51.690Z,38.83
2022-07-30T17:29:22.183Z,38.76
2022-07-30T17:31:52.426Z,39.02
2022-07-30T17:34:27.079Z,39.14
2022-07-30T17:36:57.291Z,39.50
2022-07-30T17:40:19.872Z,39.44
2022-07-30T17:42:17.936Z,39.59
2022-07-30T17:44:48.295Z,39.63
2022-07-30T17:47:18.573Z,39.45
2022-07-30T17:49:51.645Z,39.79
2022-07-30T17:52:26.606Z,39.80
2022-07-30T17:54:57.221Z,40.01
2022-07-30T17:57:27.759Z,40.01
2022-07-30T17:59:58.155Z,40.14
2022-07-30T18:02:29.299Z,40.57
2022-07-30T18:05:00.985Z,40.34
2022-07-30T18:07:31.472Z,40.09
2022-07-30T18:10:02.089Z,40.31
2022-07-30T18:12:32.623Z,40.81
2022-07-30T18:15:03.815Z,40.71
2022-07-30T18:17:34.826Z,40.81
2022-07-30T18:20:07.882Z,41.27
2022-07-30T18:22:38.203Z,40.92
2022-07-30T18:25:18.015Z,41.61
2022-07-30T18:27:50.197Z,41.62
2022-07-30T18:30:20.423Z,41.64
2022-07-30T18:32:50.556Z,41.44
2022-07-30T18:35:22.290Z,42.13
2022-07-30T18:37:52.455Z,41.57
2022-07-30T18:40:24.236Z,41.92
2022-07-30T18:42:54.766Z,41.69
2022-07-30T18:45:25.715Z,41.10
2022-07-30T18:47:57.151Z,41.40
2022-07-30T18:50:29.051Z,41.33
2022-07-30T18:52:59.065Z,41.83
2022-07-30T18:55:29.111Z,41.41
2022-07-30T18:58:01.313Z,41.69
2022-07-30T19:00:34.353Z,42.22
2022-07-30T19:03:09.979Z,42.56
2022-07-30T19:05:44.577Z,42.13
2022-07-30T19:08:14.660Z,42.51
2022-07-30T19:10:45.180Z,41.89
2022-07-30T19:13:15.922Z,42.76
2022-07-30T19:15:46.930Z,42.21
2022-07-30T19:18:17.614Z,42.78
2022-07-30T19:20:50.893Z,42.78
2022-07-30T19:23:21.479Z,42.71
2022-07-30T19:25:51.541Z,42.55
2022-07-30T19:28:22.027Z,42.69
2022-07-30T19:30:52.124Z,42.78
2022-07-30T19:33:24.314Z,42.84
2022-07-30T19:35:55.945Z,42.99
2022-07-30T19:38:26.159Z,43.46
2022-07-30T19:40:56.951Z,42.85
2022-07-30T19:43:27.202Z,43.66
2022-07-30T19:45:58.781Z,43.18
2022-07-30T19:48:31.646Z,43.56
2022-07-30T19:51:04.415Z,43.87
2022-07-30T19:53:34.939Z,43.88
2022-07-30T19:56:10.711Z,44.39
2022-07-30T19:58:42.240Z,44.29
2022-07-30T20:01:14.719Z,43.75
2022-07-30T20:03:45.549Z,44.62
2022-07-30T20:06:19.384Z,45.09
2022-07-30T20:08:52.485Z,44.93
2022-07-30T20:11:36.029Z,44.77
2022-07-30T20:14:07.008Z,45.29
2022-07-30T20:16:37.821Z,45.13
2022-07-30T20:19:08.339Z,45.78
2022-07-30T20:21:56.383Z,45.08
2022-07-30T20:24:33.069Z,45.31
2022-07-30T20:27:10.083Z,45.42
2022-07-30T20:29:53.446Z,46.17
2022-07-30T20:32:24.865Z,46.24
2022-07-30T20:34:55.596Z,46.70
2022-07-30T20:37:27.770Z,46.09
2022-07-30T20:39:58.171Z,45.91
2022-07-30T20:42:28.586Z,46.46
2022-07-30T20:44:59.558Z,46.05
2022-07-30T20:47:37.489Z,46.77
2022-07-30T20:50:10.580Z,46.85
2022-07-30T20:52:47.006Z,46.83
2022-07-30T20:55:19.344Z,46.41
2022-07-30T21:03:33.502Z,47.34
2022-07-30T21:06:04.638Z,46.86
2022-07-30T21:08:38.340Z,46.79
2022-07-30T21:11:09.590Z,47.12
2022-07-30T21:13:41.399Z,47.85
2022-07-30T21:16:15.724Z,47.93
2022-07-30T21:18:51.897Z,48.16
2022-07-30T21:21:30.397Z,47.79
2022-07-30T21:24:12.400Z,47.64
2022-07-30T21:26:43.186Z,47.85
2022-07-30T21:29:13.422Z,47.61
2022-07-30T21:32:01.247Z,48.13
2022-07-30T21:34:42.052Z,47.65
2022-07-30T21:37:13.075Z,47.58
2022-07-30T21:39:47.433Z,48.20
2022-07-30T21:42:17.694Z,47.35
2022-07-30T21:44:56.097Z,47.85
2022-07-30T21:47:26.151Z,47.71
2022-07-30T21:49:56.413Z,47.82
2022-07-30T21:52:26.597Z,47.50
2022-07-30T21:54:58.076Z,47.71
2022-07-30T21:57:34.889Z,47.63
2022-07-30T22:00:10.756Z,48.02
2022-07-30T22:02:53.310Z,47.83
2022-07-30T22:05:38.610Z,48.08
2022-07-30T22:08:10.498Z,47.98
2022-07-30T22:10:43.619Z,47.94
2022-07-30T22:13:20.787Z,48.21
2022-07-30T22:15:53.373Z,47.95
2022-07-30T22:18:23.861Z,47.98
2022-07-30T22:20:55.536Z,48.17
2022-07-30T22:23:25.439Z,48.48
2022-07-30T22:26:00.072Z,49.03
2022-07-30T22:28:30.221Z,50.08
2022-07-30T22:31:00.289Z,50.73
2022-07-30T22:33:30.478Z,51.42
2022-07-30T22:36:00.988Z,51.28
2022-07-30T22:38:31.705Z,51.38
2022-07-30T22:41:04.266Z,51.92
2022-07-30T22:43:35.600Z,51.86
2022-07-30T22:46:30.519Z,52.03
2022-07-30T22:49:01.395Z,51.90
2022-07-30T22:51:58.682Z,51.96
2022-07-30T22:54:21.928Z,52.33
2022-07-30T22:56:54.256Z,52.37
2022-07-30T22:59:57.711Z,52.32
2022-07-30T23:02:15.459Z,52.06
2022-07-30T23:04:47.879Z,51.53
2022-07-30T23:07:19.198Z,51.78
2022-07-30T23:09:51.532Z,51.84
2022-07-30T23:12:23.791Z,51.27
2022-07-30T23:12:31.416Z,46.09
2022-07-30T23:12:32.821Z,46.73
2022-07-30T23:14:54.729Z,50.95
2022-07-30T23:17:25.777Z,50.59
2022-07-30T23:19:55.787Z,50.58
2022-07-30T23:22:25.769Z,50.30
2022-07-30T23:24:55.639Z,50.30
2022-07-30T23:27:27.398Z,50.15
2022-07-30T23:29:57.604Z,49.74
2022-07-30T23:32:27.779Z,49.30
2022-07-30T23:34:57.819Z,49.03
2022-07-30T23:37:28.091Z,49.20
2022-07-30T23:39:59.367Z,49.46
2022-07-30T23:42:30.706Z,49.31
2022-07-30T23:45:01.827Z,49.19
2022-07-30T23:47:57.262Z,49.49
2022-07-30T23:50:22.281Z,48.91
2022-07-30T23:52:52.307Z,48.91
2022-07-30T23:55:23.594Z,48.66
2022-07-30T23:57:54.838Z,48.45
